首页
METAR-TAF:

METAR-TAF

机场 :

卢森堡-芬德尔国际机场

卢森堡, 卢森堡

纬度: 49-37N, 经度: 006-13E, 海拔: 376米

当前天气观测

该预报发布于31分钟前的08:50 UTC
风速6节,风向东北,在东转东北之间变化
温度 5°C
湿度 41%
气压 1022 hPa
能见度10公里或以上
1500米以下无云,无积雨云

METAR: ELLX 010850Z 04006KT 010V070 CAVOK 05/M07 Q1022 NOSIG

时间: 11:21 (09:21 UTC)

预报

该预报发布于4小时和21分钟前的05:00 UTC
预报有效从01日的 06点(UTC)到 02日的 12点(UTC)
风速8节,风向东北
能见度10公里或以上
1500米以下无云,无积雨云

TAF: ELLX 010500Z 0106/0212 04008KT CAVOK

超过4000个机场的气象观测和天气预报(METAR&TAF报告)。

可查询的气象台以黄色和红色小点在地图上表示。

将鼠标移到小点上方,可查看气象台名称。

然后点击查看天气观测和预报。

如需切换地图:点击带黑十字的绿色按钮放大地图;点击带横线的绿色按钮缩小地图;或者点击绿色箭头查看邻近地区的地图。


METAR-TAF: